sensor_id;sensor_type;location;lat;lon;timestamp;temperature;humidity
11239;DHT22;5677;48.488;13.436;2022-09-09T00:01:49;20.20;58.40
11239;DHT22;5677;48.488;13.436;2022-09-09T00:04:26;20.20;58.40
11239;DHT22;5677;48.488;13.436;2022-09-09T00:07:04;20.20;58.40
11239;DHT22;5677;48.488;13.436;2022-09-09T00:09:43;20.20;58.40
11239;DHT22;5677;48.488;13.436;2022-09-09T00:12:18;20.30;58.50
11239;DHT22;5677;48.488;13.436;2022-09-09T00:14:56;20.20;58.40
11239;DHT22;5677;48.488;13.436;2022-09-09T00:17:34;20.20;58.40
11239;DHT22;5677;48.488;13.436;2022-09-09T00:20:13;20.20;58.40
11239;DHT22;5677;48.488;13.436;2022-09-09T00:22:49;20.20;58.40
11239;DHT22;5677;48.488;13.436;2022-09-09T00:25:28;20.20;58.40
11239;DHT22;5677;48.488;13.436;2022-09-09T00:28:00;20.20;58.40
11239;DHT22;5677;48.488;13.436;2022-09-09T00:30:31;20.20;58.40
11239;DHT22;5677;48.488;13.436;2022-09-09T00:33:10;20.20;58.40
11239;DHT22;5677;48.488;13.436;2022-09-09T00:35:44;20.20;58.50
11239;DHT22;5677;48.488;13.436;2022-09-09T00:38:18;20.20;58.40
11239;DHT22;5677;48.488;13.436;2022-09-09T00:40:52;20.20;58.40
11239;DHT22;5677;48.488;13.436;2022-09-09T00:43:28;20.20;58.40
11239;DHT22;5677;48.488;13.436;2022-09-09T00:46:33;20.20;58.40
11239;DHT22;5677;48.488;13.436;2022-09-09T00:49:22;20.20;58.40
11239;DHT22;5677;48.488;13.436;2022-09-09T00:52:08;20.20;58.40
11239;DHT22;5677;48.488;13.436;2022-09-09T00:54:53;20.20;58.40
11239;DHT22;5677;48.488;13.436;2022-09-09T00:57:29;20.20;59.10
11239;DHT22;5677;48.488;13.436;2022-09-09T01:00:16;20.20;58.40
11239;DHT22;5677;48.488;13.436;2022-09-09T01:02:56;20.10;58.40
11239;DHT22;5677;48.488;13.436;2022-09-09T01:06:11;20.20;58.40
11239;DHT22;5677;48.488;13.436;2022-09-09T01:09:02;20.20;58.40
11239;DHT22;5677;48.488;13.436;2022-09-09T01:11:46;20.10;58.40
11239;DHT22;5677;48.488;13.436;2022-09-09T01:14:29;20.10;58.50
11239;DHT22;5677;48.488;13.436;2022-09-09T01:17:07;20.20;58.40
11239;DHT22;5677;48.488;13.436;2022-09-09T01:19:50;20.10;59.20
11239;DHT22;5677;48.488;13.436;2022-09-09T01:22:32;20.20;58.40
11239;DHT22;5677;48.488;13.436;2022-09-09T01:25:29;20.10;58.40
11239;DHT22;5677;48.488;13.436;2022-09-09T01:28:31;20.10;58.50
11239;DHT22;5677;48.488;13.436;2022-09-09T01:31:01;20.10;58.40
11239;DHT22;5677;48.488;13.436;2022-09-09T01:33:29;20.10;58.40
11239;DHT22;5677;48.488;13.436;2022-09-09T01:36:00;20.10;58.40
11239;DHT22;5677;48.488;13.436;2022-09-09T01:38:33;20.10;58.50
11239;DHT22;5677;48.488;13.436;2022-09-09T01:41:02;20.10;58.50
11239;DHT22;5677;48.488;13.436;2022-09-09T01:43:30;20.10;58.40
11239;DHT22;5677;48.488;13.436;2022-09-09T01:46:00;20.10;58.50
11239;DHT22;5677;48.488;13.436;2022-09-09T01:48:28;20.10;58.50
11239;DHT22;5677;48.488;13.436;2022-09-09T01:50:56;20.10;58.50
11239;DHT22;5677;48.488;13.436;2022-09-09T01:53:23;20.10;58.50
11239;DHT22;5677;48.488;13.436;2022-09-09T01:56:02;20.10;58.50
11239;DHT22;5677;48.488;13.436;2022-09-09T01:58:45;20.10;58.50
11239;DHT22;5677;48.488;13.436;2022-09-09T02:01:32;20.10;58.40
11239;DHT22;5677;48.488;13.436;2022-09-09T02:04:15;20.10;58.40
11239;DHT22;5677;48.488;13.436;2022-09-09T02:06:54;20.10;58.50
11239;DHT22;5677;48.488;13.436;2022-09-09T02:09:24;20.10;58.50
11239;DHT22;5677;48.488;13.436;2022-09-09T02:11:58;20.00;58.40
11239;DHT22;5677;48.488;13.436;2022-09-09T02:14:33;20.10;58.50
11239;DHT22;5677;48.488;13.436;2022-09-09T02:17:08;20.10;58.50
11239;DHT22;5677;48.488;13.436;2022-09-09T02:19:40;20.10;58.50
11239;DHT22;5677;48.488;13.436;2022-09-09T02:22:12;20.00;58.40
11239;DHT22;5677;48.488;13.436;2022-09-09T02:24:40;20.00;58.40
11239;DHT22;5677;48.488;13.436;2022-09-09T02:27:09;20.10;58.50
11239;DHT22;5677;48.488;13.436;2022-09-09T02:29:39;20.00;58.40
11239;DHT22;5677;48.488;13.436;2022-09-09T02:32:11;20.00;58.40
11239;DHT22;5677;48.488;13.436;2022-09-09T02:34:45;20.00;58.40
11239;DHT22;5677;48.488;13.436;2022-09-09T02:37:15;20.00;58.40
11239;DHT22;5677;48.488;13.436;2022-09-09T02:39:45;20.00;58.40
11239;DHT22;5677;48.488;13.436;2022-09-09T02:42:14;20.00;58.40
11239;DHT22;5677;48.488;13.436;2022-09-09T02:44:41;20.00;58.40
11239;DHT22;5677;48.488;13.436;2022-09-09T02:47:24;20.00;58.30
11239;DHT22;5677;48.488;13.436;2022-09-09T02:50:04;20.00;58.40
11239;DHT22;5677;48.488;13.436;2022-09-09T02:52:45;20.00;58.40
11239;DHT22;5677;48.488;13.436;2022-09-09T02:55:28;20.00;58.40
11239;DHT22;5677;48.488;13.436;2022-09-09T02:58:08;20.00;58.40
11239;DHT22;5677;48.488;13.436;2022-09-09T03:00:38;20.00;58.40
11239;DHT22;5677;48.488;13.436;2022-09-09T03:03:06;20.00;58.40
11239;DHT22;5677;48.488;13.436;2022-09-09T03:05:35;20.00;58.40
11239;DHT22;5677;48.488;13.436;2022-09-09T03:08:03;20.00;58.40
11239;DHT22;5677;48.488;13.436;2022-09-09T03:10:31;20.00;58.40
11239;DHT22;5677;48.488;13.436;2022-09-09T03:12:58;20.00;58.40
11239;DHT22;5677;48.488;13.436;2022-09-09T03:15:27;20.00;58.40
11239;DHT22;5677;48.488;13.436;2022-09-09T03:17:56;20.00;58.40
11239;DHT22;5677;48.488;13.436;2022-09-09T03:20:24;20.00;58.40
11239;DHT22;5677;48.488;13.436;2022-09-09T03:22:52;20.00;58.40
11239;DHT22;5677;48.488;13.436;2022-09-09T03:25:19;19.90;58.40
11239;DHT22;5677;48.488;13.436;2022-09-09T03:27:49;19.90;58.40
11239;DHT22;5677;48.488;13.436;2022-09-09T03:30:19;19.90;58.40
11239;DHT22;5677;48.488;13.436;2022-09-09T03:32:48;19.90;58.40
11239;DHT22;5677;48.488;13.436;2022-09-09T03:35:15;20.00;58.40
11239;DHT22;5677;48.488;13.436;2022-09-09T03:37:42;19.90;58.40
11239;DHT22;5677;48.488;13.436;2022-09-09T03:40:10;19.90;58.40
11239;DHT22;5677;48.488;13.436;2022-09-09T03:42:38;19.90;58.40
11239;DHT22;5677;48.488;13.436;2022-09-09T03:45:07;19.90;58.40
11239;DHT22;5677;48.488;13.436;2022-09-09T03:47:36;19.90;58.40
11239;DHT22;5677;48.488;13.436;2022-09-09T03:50:06;19.90;58.30
11239;DHT22;5677;48.488;13.436;2022-09-09T03:52:35;19.90;58.40
11239;DHT22;5677;48.488;13.436;2022-09-09T03:55:02;19.90;58.40
11239;DHT22;5677;48.488;13.436;2022-09-09T03:57:30;19.90;58.40
11239;DHT22;5677;48.488;13.436;2022-09-09T03:59:59;19.90;58.40
11239;DHT22;5677;48.488;13.436;2022-09-09T04:02:27;19.90;57.90
11239;DHT22;5677;48.488;13.436;2022-09-09T04:04:53;19.90;58.40
11239;DHT22;5677;48.488;13.436;2022-09-09T04:07:22;19.90;58.40
11239;DHT22;5677;48.488;13.436;2022-09-09T04:09:49;19.90;58.40
11239;DHT22;5677;48.488;13.436;2022-09-09T04:12:16;19.90;58.40
11239;DHT22;5677;48.488;13.436;2022-09-09T04:14:43;19.90;58.40
11239;DHT22;5677;48.488;13.436;2022-09-09T04:17:10;19.90;58.40
11239;DHT22;5677;48.488;13.436;2022-09-09T04:19:37;19.90;58.40
11239;DHT22;5677;48.488;13.436;2022-09-09T04:22:04;19.90;58.40
11239;DHT22;5677;48.488;13.436;2022-09-09T04:24:32;19.90;58.40
11239;DHT22;5677;48.488;13.436;2022-09-09T04:27:00;19.90;58.40
11239;DHT22;5677;48.488;13.436;2022-09-09T04:29:27;19.90;58.40
11239;DHT22;5677;48.488;13.436;2022-09-09T04:31:54;19.90;58.30
11239;DHT22;5677;48.488;13.436;2022-09-09T04:34:21;19.90;58.30
11239;DHT22;5677;48.488;13.436;2022-09-09T04:36:48;19.80;58.20
11239;DHT22;5677;48.488;13.436;2022-09-09T04:39:17;19.80;58.20
11239;DHT22;5677;48.488;13.436;2022-09-09T04:41:46;19.90;58.40
11239;DHT22;5677;48.488;13.436;2022-09-09T04:44:13;19.80;58.20
11239;DHT22;5677;48.488;13.436;2022-09-09T04:46:41;19.80;58.30
11239;DHT22;5677;48.488;13.436;2022-09-09T04:49:08;19.80;58.30
11239;DHT22;5677;48.488;13.436;2022-09-09T04:51:35;19.80;58.30
11239;DHT22;5677;48.488;13.436;2022-09-09T04:54:02;19.80;58.30
11239;DHT22;5677;48.488;13.436;2022-09-09T04:56:29;19.80;58.30
11239;DHT22;5677;48.488;13.436;2022-09-09T04:58:57;19.80;58.30
11239;DHT22;5677;48.488;13.436;2022-09-09T05:01:24;19.80;58.30
11239;DHT22;5677;48.488;13.436;2022-09-09T05:03:52;19.80;58.20
11239;DHT22;5677;48.488;13.436;2022-09-09T05:06:21;19.80;58.20
11239;DHT22;5677;48.488;13.436;2022-09-09T05:08:48;19.80;58.20
11239;DHT22;5677;48.488;13.436;2022-09-09T05:11:17;19.80;58.20
11239;DHT22;5677;48.488;13.436;2022-09-09T05:13:46;19.80;58.30
11239;DHT22;5677;48.488;13.436;2022-09-09T05:16:14;19.80;58.20
11239;DHT22;5677;48.488;13.436;2022-09-09T05:18:42;19.80;58.90
11239;DHT22;5677;48.488;13.436;2022-09-09T05:21:10;19.80;58.20
11239;DHT22;5677;48.488;13.436;2022-09-09T05:23:38;19.80;58.20
11239;DHT22;5677;48.488;13.436;2022-09-09T05:26:06;19.80;58.20
11239;DHT22;5677;48.488;13.436;2022-09-09T05:28:38;19.80;58.30
11239;DHT22;5677;48.488;13.436;2022-09-09T05:31:06;19.80;58.20
11239;DHT22;5677;48.488;13.436;2022-09-09T05:33:38;19.80;58.20
11239;DHT22;5677;48.488;13.436;2022-09-09T05:36:08;19.80;58.20
11239;DHT22;5677;48.488;13.436;2022-09-09T05:38:39;19.80;58.20
11239;DHT22;5677;48.488;13.436;2022-09-09T05:41:07;19.80;58.20
11239;DHT22;5677;48.488;13.436;2022-09-09T05:43:35;19.80;58.20
11239;DHT22;5677;48.488;13.436;2022-09-09T05:46:04;19.80;58.20
11239;DHT22;5677;48.488;13.436;2022-09-09T05:48:34;19.80;58.20
11239;DHT22;5677;48.488;13.436;2022-09-09T05:51:05;19.80;58.20
11239;DHT22;5677;48.488;13.436;2022-09-09T05:53:34;19.80;58.20
11239;DHT22;5677;48.488;13.436;2022-09-09T05:56:03;19.80;58.20
11239;DHT22;5677;48.488;13.436;2022-09-09T05:58:30;19.80;58.20
11239;DHT22;5677;48.488;13.436;2022-09-09T06:01:02;19.80;58.20
11239;DHT22;5677;48.488;13.436;2022-09-09T06:03:30;19.80;58.20
11239;DHT22;5677;48.488;13.436;2022-09-09T06:05:58;19.80;58.20
11239;DHT22;5677;48.488;13.436;2022-09-09T06:08:27;19.80;58.20
11239;DHT22;5677;48.488;13.436;2022-09-09T06:11:01;19.80;58.20
11239;DHT22;5677;48.488;13.436;2022-09-09T06:13:29;19.80;58.20
11239;DHT22;5677;48.488;13.436;2022-09-09T06:15:57;19.70;58.10
11239;DHT22;5677;48.488;13.436;2022-09-09T06:18:24;19.80;58.10
11239;DHT22;5677;48.488;13.436;2022-09-09T06:20:56;19.80;58.20
11239;DHT22;5677;48.488;13.436;2022-09-09T06:23:24;19.80;58.10
11239;DHT22;5677;48.488;13.436;2022-09-09T06:26:01;19.80;58.10
11239;DHT22;5677;48.488;13.436;2022-09-09T06:28:32;19.80;58.10
11239;DHT22;5677;48.488;13.436;2022-09-09T06:30:59;19.80;58.10
11239;DHT22;5677;48.488;13.436;2022-09-09T06:33:30;19.80;58.20
11239;DHT22;5677;48.488;13.436;2022-09-09T06:35:57;19.80;58.10
11239;DHT22;5677;48.488;13.436;2022-09-09T06:38:24;19.80;58.10
11239;DHT22;5677;48.488;13.436;2022-09-09T06:40:53;19.80;58.10
11239;DHT22;5677;48.488;13.436;2022-09-09T06:43:21;19.80;58.10
11239;DHT22;5677;48.488;13.436;2022-09-09T06:45:57;19.70;58.10
11239;DHT22;5677;48.488;13.436;2022-09-09T06:48:26;19.80;58.20
11239;DHT22;5677;48.488;13.436;2022-09-09T06:51:01;19.80;58.10
11239;DHT22;5677;48.488;13.436;2022-09-09T06:53:29;19.80;58.10
11239;DHT22;5677;48.488;13.436;2022-09-09T06:55:57;19.80;58.10
11239;DHT22;5677;48.488;13.436;2022-09-09T06:58:24;19.80;58.10
11239;DHT22;5677;48.488;13.436;2022-09-09T07:00:51;19.80;58.10
11239;DHT22;5677;48.488;13.436;2022-09-09T07:03:18;19.80;58.10
11239;DHT22;5677;48.488;13.436;2022-09-09T07:05:54;19.80;58.10
11239;DHT22;5677;48.488;13.436;2022-09-09T07:08:21;19.80;58.10
11239;DHT22;5677;48.488;13.436;2022-09-09T07:10:50;19.80;58.10
11239;DHT22;5677;48.488;13.436;2022-09-09T07:13:23;19.70;58.10
11239;DHT22;5677;48.488;13.436;2022-09-09T07:15:51;19.80;58.00
11239;DHT22;5677;48.488;13.436;2022-09-09T07:18:18;19.80;58.10
11239;DHT22;5677;48.488;13.436;2022-09-09T07:20:52;19.80;58.10
11239;DHT22;5677;48.488;13.436;2022-09-09T07:23:21;19.80;58.00
11239;DHT22;5677;48.488;13.436;2022-09-09T07:25:48;19.80;58.10
11239;DHT22;5677;48.488;13.436;2022-09-09T07:28:15;19.80;58.10
11239;DHT22;5677;48.488;13.436;2022-09-09T07:30:52;19.80;58.00
11239;DHT22;5677;48.488;13.436;2022-09-09T07:33:20;19.80;58.00
11239;DHT22;5677;48.488;13.436;2022-09-09T07:35:46;19.80;58.10
11239;DHT22;5677;48.488;13.436;2022-09-09T07:38:13;19.80;58.10
11239;DHT22;5677;48.488;13.436;2022-09-09T07:40:41;19.80;58.00
11239;DHT22;5677;48.488;13.436;2022-09-09T07:43:08;19.80;58.00
11239;DHT22;5677;48.488;13.436;2022-09-09T07:45:35;19.80;58.00
11239;DHT22;5677;48.488;13.436;2022-09-09T07:48:03;19.80;58.00
11239;DHT22;5677;48.488;13.436;2022-09-09T07:50:31;19.80;58.10
11239;DHT22;5677;48.488;13.436;2022-09-09T07:52:58;19.80;58.00
11239;DHT22;5677;48.488;13.436;2022-09-09T07:55:25;19.80;58.10
11239;DHT22;5677;48.488;13.436;2022-09-09T07:57:53;19.80;58.70
11239;DHT22;5677;48.488;13.436;2022-09-09T08:00:22;19.80;58.10
11239;DHT22;5677;48.488;13.436;2022-09-09T08:02:49;19.80;58.10
11239;DHT22;5677;48.488;13.436;2022-09-09T08:05:17;19.80;58.00
11239;DHT22;5677;48.488;13.436;2022-09-09T08:07:44;19.80;58.00
11239;DHT22;5677;48.488;13.436;2022-09-09T08:10:11;19.80;58.00
11239;DHT22;5677;48.488;13.436;2022-09-09T08:12:40;19.80;58.00
11239;DHT22;5677;48.488;13.436;2022-09-09T08:15:07;19.80;58.00
11239;DHT22;5677;48.488;13.436;2022-09-09T08:17:34;19.80;58.00
11239;DHT22;5677;48.488;13.436;2022-09-09T08:20:03;19.80;58.00
11239;DHT22;5677;48.488;13.436;2022-09-09T08:22:33;19.80;58.00
11239;DHT22;5677;48.488;13.436;2022-09-09T08:25:03;19.80;58.00
11239;DHT22;5677;48.488;13.436;2022-09-09T08:27:32;19.80;58.00
11239;DHT22;5677;48.488;13.436;2022-09-09T08:29:58;19.80;58.00
11239;DHT22;5677;48.488;13.436;2022-09-09T08:32:25;19.80;58.00
11239;DHT22;5677;48.488;13.436;2022-09-09T08:34:53;19.80;58.00
11239;DHT22;5677;48.488;13.436;2022-09-09T08:37:19;19.80;58.00
11239;DHT22;5677;48.488;13.436;2022-09-09T08:39:48;19.80;58.00
11239;DHT22;5677;48.488;13.436;2022-09-09T08:42:28;19.80;58.00
11239;DHT22;5677;48.488;13.436;2022-09-09T08:45:22;19.80;58.00
11239;DHT22;5677;48.488;13.436;2022-09-09T08:48:15;19.80;58.00
11239;DHT22;5677;48.488;13.436;2022-09-09T08:50:52;19.80;58.00
11239;DHT22;5677;48.488;13.436;2022-09-09T08:53:28;19.80;58.00
11239;DHT22;5677;48.488;13.436;2022-09-09T08:56:09;19.80;58.00
11239;DHT22;5677;48.488;13.436;2022-09-09T08:58:45;19.70;58.00
11239;DHT22;5677;48.488;13.436;2022-09-09T09:01:38;19.80;58.00
11239;DHT22;5677;48.488;13.436;2022-09-09T09:04:27;19.80;58.00
11239;DHT22;5677;48.488;13.436;2022-09-09T09:07:04;19.80;58.10
11239;DHT22;5677;48.488;13.436;2022-09-09T09:09:51;19.80;58.60
11239;DHT22;5677;48.488;13.436;2022-09-09T09:12:36;19.80;58.00
11239;DHT22;5677;48.488;13.436;2022-09-09T09:15:14;19.80;58.00
11239;DHT22;5677;48.488;13.436;2022-09-09T09:17:44;19.80;58.00
11239;DHT22;5677;48.488;13.436;2022-09-09T09:20:12;19.80;58.00
11239;DHT22;5677;48.488;13.436;2022-09-09T09:22:47;19.80;58.00
11239;DHT22;5677;48.488;13.436;2022-09-09T09:25:18;19.70;58.00
11239;DHT22;5677;48.488;13.436;2022-09-09T09:27:53;19.80;58.00
11239;DHT22;5677;48.488;13.436;2022-09-09T09:30:28;19.70;58.00
11239;DHT22;5677;48.488;13.436;2022-09-09T09:33:00;19.70;58.00
11239;DHT22;5677;48.488;13.436;2022-09-09T09:35:32;19.70;58.00
11239;DHT22;5677;48.488;13.436;2022-09-09T09:37:59;19.80;58.00
11239;DHT22;5677;48.488;13.436;2022-09-09T09:40:27;19.70;58.00
11239;DHT22;5677;48.488;13.436;2022-09-09T09:42:58;19.80;58.00
11239;DHT22;5677;48.488;13.436;2022-09-09T09:45:32;19.70;58.00
11239;DHT22;5677;48.488;13.436;2022-09-09T09:48:03;19.80;58.00
11239;DHT22;5677;48.488;13.436;2022-09-09T09:50:32;19.80;58.00
11239;DHT22;5677;48.488;13.436;2022-09-09T09:53:02;19.70;58.00
11239;DHT22;5677;48.488;13.436;2022-09-09T09:55:31;19.80;58.00
11239;DHT22;5677;48.488;13.436;2022-09-09T09:58:04;19.80;57.90
11239;DHT22;5677;48.488;13.436;2022-09-09T10:00:33;19.70;58.00
11239;DHT22;5677;48.488;13.436;2022-09-09T10:03:01;19.80;58.00
11239;DHT22;5677;48.488;13.436;2022-09-09T10:05:29;19.80;58.00
11239;DHT22;5677;48.488;13.436;2022-09-09T10:08:04;19.80;58.00
11239;DHT22;5677;48.488;13.436;2022-09-09T10:10:45;19.80;58.00
11239;DHT22;5677;48.488;13.436;2022-09-09T10:13:27;19.80;58.00
11239;DHT22;5677;48.488;13.436;2022-09-09T10:16:10;19.70;58.00
11239;DHT22;5677;48.488;13.436;2022-09-09T10:18:57;19.80;58.00
11239;DHT22;5677;48.488;13.436;2022-09-09T10:27:50;19.80;58.00
11239;DHT22;5677;48.488;13.436;2022-09-09T10:30:44;19.80;58.00
11239;DHT22;5677;48.488;13.436;2022-09-09T10:33:24;19.80;58.00
11239;DHT22;5677;48.488;13.436;2022-09-09T10:36:05;19.80;58.00
11239;DHT22;5677;48.488;13.436;2022-09-09T10:38:40;19.80;58.00
11239;DHT22;5677;48.488;13.436;2022-09-09T10:41:20;19.80;58.00
11239;DHT22;5677;48.488;13.436;2022-09-09T10:44:24;19.80;58.00
11239;DHT22;5677;48.488;13.436;2022-09-09T10:47:16;19.80;58.00
11239;DHT22;5677;48.488;13.436;2022-09-09T10:50:34;19.80;58.00
11239;DHT22;5677;48.488;13.436;2022-09-09T10:53:14;19.80;58.00
11239;DHT22;5677;48.488;13.436;2022-09-09T10:55:53;19.70;58.00
11239;DHT22;5677;48.488;13.436;2022-09-09T10:58:29;19.80;58.00
11239;DHT22;5677;48.488;13.436;2022-09-09T11:01:02;19.80;58.00
11239;DHT22;5677;48.488;13.436;2022-09-09T11:03:39;19.70;58.00
11239;DHT22;5677;48.488;13.436;2022-09-09T11:06:14;19.80;58.00
11239;DHT22;5677;48.488;13.436;2022-09-09T11:08:45;19.80;58.00
11239;DHT22;5677;48.488;13.436;2022-09-09T11:11:19;19.70;58.00
11239;DHT22;5677;48.488;13.436;2022-09-09T11:13:58;19.70;58.00
11239;DHT22;5677;48.488;13.436;2022-09-09T11:16:34;19.80;58.00
11239;DHT22;5677;48.488;13.436;2022-09-09T11:19:16;19.70;58.00
11239;DHT22;5677;48.488;13.436;2022-09-09T11:21:49;19.70;58.00
11239;DHT22;5677;48.488;13.436;2022-09-09T11:24:22;19.70;58.00
11239;DHT22;5677;48.488;13.436;2022-09-09T11:26:55;19.80;58.00
11239;DHT22;5677;48.488;13.436;2022-09-09T11:32:46;19.70;58.00
11239;DHT22;5677;48.488;13.436;2022-09-09T11:35:46;19.70;58.00
11239;DHT22;5677;48.488;13.436;2022-09-09T11:38:26;19.80;58.00
11239;DHT22;5677;48.488;13.436;2022-09-09T11:40:57;19.80;58.00
11239;DHT22;5677;48.488;13.436;2022-09-09T11:43:32;19.70;58.00
11239;DHT22;5677;48.488;13.436;2022-09-09T11:46:05;19.70;58.00
11239;DHT22;5677;48.488;13.436;2022-09-09T11:48:35;19.80;58.00
11239;DHT22;5677;48.488;13.436;2022-09-09T11:51:07;19.70;58.00
11239;DHT22;5677;48.488;13.436;2022-09-09T11:53:48;19.70;58.00
11239;DHT22;5677;48.488;13.436;2022-09-09T11:56:25;19.80;58.00
11239;DHT22;5677;48.488;13.436;2022-09-09T11:58:57;19.70;58.00
11239;DHT22;5677;48.488;13.436;2022-09-09T12:01:39;19.70;58.00
11239;DHT22;5677;48.488;13.436;2022-09-09T12:04:21;19.80;58.00
11239;DHT22;5677;48.488;13.436;2022-09-09T12:06:59;19.70;58.00
11239;DHT22;5677;48.488;13.436;2022-09-09T12:09:42;19.70;58.00
11239;DHT22;5677;48.488;13.436;2022-09-09T12:12:37;19.70;57.90
11239;DHT22;5677;48.488;13.436;2022-09-09T12:15:26;19.70;58.00
11239;DHT22;5677;48.488;13.436;2022-09-09T12:17:56;19.70;58.00
11239;DHT22;5677;48.488;13.436;2022-09-09T12:20:33;19.70;58.00
11239;DHT22;5677;48.488;13.436;2022-09-09T12:23:18;19.70;58.00
11239;DHT22;5677;48.488;13.436;2022-09-09T12:26:28;19.70;58.00
11239;DHT22;5677;48.488;13.436;2022-09-09T12:29:08;19.70;57.90
11239;DHT22;5677;48.488;13.436;2022-09-09T12:31:46;19.70;58.00
11239;DHT22;5677;48.488;13.436;2022-09-09T12:34:34;19.70;58.60
11239;DHT22;5677;48.488;13.436;2022-09-09T12:37:12;19.70;58.00
11239;DHT22;5677;48.488;13.436;2022-09-09T12:39:47;19.70;58.60
11239;DHT22;5677;48.488;13.436;2022-09-09T12:42:19;19.70;57.90
11239;DHT22;5677;48.488;13.436;2022-09-09T12:44:55;19.70;58.00
11239;DHT22;5677;48.488;13.436;2022-09-09T12:47:28;19.70;58.00
11239;DHT22;5677;48.488;13.436;2022-09-09T12:50:15;19.70;57.90
11239;DHT22;5677;48.488;13.436;2022-09-09T12:52:44;19.70;57.90
11239;DHT22;5677;48.488;13.436;2022-09-09T12:55:18;19.70;57.90
11239;DHT22;5677;48.488;13.436;2022-09-09T12:57:48;19.70;57.90
11239;DHT22;5677;48.488;13.436;2022-09-09T13:00:18;19.70;57.90
11239;DHT22;5677;48.488;13.436;2022-09-09T13:02:50;19.70;57.90
11239;DHT22;5677;48.488;13.436;2022-09-09T13:05:22;19.70;57.90
11239;DHT22;5677;48.488;13.436;2022-09-09T13:07:51;19.80;57.90
11239;DHT22;5677;48.488;13.436;2022-09-09T13:10:25;19.70;57.90
11239;DHT22;5677;48.488;13.436;2022-09-09T13:12:55;19.70;57.90
11239;DHT22;5677;48.488;13.436;2022-09-09T13:15:25;19.70;57.90
11239;DHT22;5677;48.488;13.436;2022-09-09T13:17:56;19.70;57.90
11239;DHT22;5677;48.488;13.436;2022-09-09T13:20:26;19.80;57.90
11239;DHT22;5677;48.488;13.436;2022-09-09T13:22:56;19.70;57.90
11239;DHT22;5677;48.488;13.436;2022-09-09T13:25:26;19.70;57.90
11239;DHT22;5677;48.488;13.436;2022-09-09T13:27:57;19.70;57.90
11239;DHT22;5677;48.488;13.436;2022-09-09T13:30:29;19.80;57.90
11239;DHT22;5677;48.488;13.436;2022-09-09T13:33:17;19.80;57.90
11239;DHT22;5677;48.488;13.436;2022-09-09T13:35:50;19.70;57.90
11239;DHT22;5677;48.488;13.436;2022-09-09T13:38:20;19.70;57.80
11239;DHT22;5677;48.488;13.436;2022-09-09T13:40:57;19.80;57.90
11239;DHT22;5677;48.488;13.436;2022-09-09T13:43:28;19.80;57.90
11239;DHT22;5677;48.488;13.436;2022-09-09T13:45:59;19.80;57.80
11239;DHT22;5677;48.488;13.436;2022-09-09T13:48:28;19.80;57.90
11239;DHT22;5677;48.488;13.436;2022-09-09T13:51:00;19.80;57.80
11239;DHT22;5677;48.488;13.436;2022-09-09T13:53:30;19.70;57.80
11239;DHT22;5677;48.488;13.436;2022-09-09T13:55:58;19.80;57.80
11239;DHT22;5677;48.488;13.436;2022-09-09T13:58:27;19.80;57.80
11239;DHT22;5677;48.488;13.436;2022-09-09T14:00:54;19.80;57.80
11239;DHT22;5677;48.488;13.436;2022-09-09T14:03:22;19.70;57.80
11239;DHT22;5677;48.488;13.436;2022-09-09T14:05:49;19.80;57.80
11239;DHT22;5677;48.488;13.436;2022-09-09T14:08:23;19.70;57.80
11239;DHT22;5677;48.488;13.436;2022-09-09T14:10:52;19.70;57.80
11239;DHT22;5677;48.488;13.436;2022-09-09T14:13:22;19.80;57.80
11239;DHT22;5677;48.488;13.436;2022-09-09T14:15:49;19.80;57.80
11239;DHT22;5677;48.488;13.436;2022-09-09T14:18:16;19.80;57.80
11239;DHT22;5677;48.488;13.436;2022-09-09T14:20:44;19.80;57.80
11239;DHT22;5677;48.488;13.436;2022-09-09T14:23:11;19.80;57.80
11239;DHT22;5677;48.488;13.436;2022-09-09T14:25:42;19.80;57.80
11239;DHT22;5677;48.488;13.436;2022-09-09T14:28:10;19.70;57.80
11239;DHT22;5677;48.488;13.436;2022-09-09T14:30:41;19.80;57.80
11239;DHT22;5677;48.488;13.436;2022-09-09T14:33:11;19.80;57.80
11239;DHT22;5677;48.488;13.436;2022-09-09T14:35:40;19.80;57.80
11239;DHT22;5677;48.488;13.436;2022-09-09T14:38:07;19.70;57.70
11239;DHT22;5677;48.488;13.436;2022-09-09T14:40:36;19.70;57.70
11239;DHT22;5677;48.488;13.436;2022-09-09T14:43:04;19.80;57.70
11239;DHT22;5677;48.488;13.436;2022-09-09T14:45:32;19.70;57.70
11239;DHT22;5677;48.488;13.436;2022-09-09T14:48:01;19.80;57.80
11239;DHT22;5677;48.488;13.436;2022-09-09T14:50:28;19.80;57.70
11239;DHT22;5677;48.488;13.436;2022-09-09T14:52:55;19.80;57.70
11239;DHT22;5677;48.488;13.436;2022-09-09T14:55:22;19.80;57.70
11239;DHT22;5677;48.488;13.436;2022-09-09T14:57:49;19.80;57.70
11239;DHT22;5677;48.488;13.436;2022-09-09T15:00:16;19.80;57.70
11239;DHT22;5677;48.488;13.436;2022-09-09T15:02:43;19.80;57.70
11239;DHT22;5677;48.488;13.436;2022-09-09T15:05:11;19.70;57.70
11239;DHT22;5677;48.488;13.436;2022-09-09T15:07:38;19.80;57.70
11239;DHT22;5677;48.488;13.436;2022-09-09T15:10:06;19.80;57.70
11239;DHT22;5677;48.488;13.436;2022-09-09T15:12:33;19.80;57.70
11239;DHT22;5677;48.488;13.436;2022-09-09T15:15:01;19.80;57.70
11239;DHT22;5677;48.488;13.436;2022-09-09T15:17:28;19.80;57.70
11239;DHT22;5677;48.488;13.436;2022-09-09T15:19:55;19.80;57.70
11239;DHT22;5677;48.488;13.436;2022-09-09T15:22:24;19.80;57.70
11239;DHT22;5677;48.488;13.436;2022-09-09T15:24:51;19.80;57.70
11239;DHT22;5677;48.488;13.436;2022-09-09T15:27:18;19.80;57.70
11239;DHT22;5677;48.488;13.436;2022-09-09T15:29:45;19.80;57.70
11239;DHT22;5677;48.488;13.436;2022-09-09T15:32:12;19.80;57.60
11239;DHT22;5677;48.488;13.436;2022-09-09T15:34:39;19.80;57.70
11239;DHT22;5677;48.488;13.436;2022-09-09T15:37:06;19.80;57.60
11239;DHT22;5677;48.488;13.436;2022-09-09T15:39:38;19.80;57.70
11239;DHT22;5677;48.488;13.436;2022-09-09T15:42:06;19.80;57.70
11239;DHT22;5677;48.488;13.436;2022-09-09T15:44:38;19.80;57.60
11239;DHT22;5677;48.488;13.436;2022-09-09T15:47:07;19.80;57.60
11239;DHT22;5677;48.488;13.436;2022-09-09T15:49:38;19.80;57.60
11239;DHT22;5677;48.488;13.436;2022-09-09T15:52:05;19.80;57.60
11239;DHT22;5677;48.488;13.436;2022-09-09T15:54:33;19.80;57.60
11239;DHT22;5677;48.488;13.436;2022-09-09T15:57:05;19.80;57.60
11239;DHT22;5677;48.488;13.436;2022-09-09T15:59:33;19.80;57.60
11239;DHT22;5677;48.488;13.436;2022-09-09T16:02:00;19.80;57.70
11239;DHT22;5677;48.488;13.436;2022-09-09T16:04:28;19.80;57.70
11239;DHT22;5677;48.488;13.436;2022-09-09T16:06:58;19.80;57.70
11239;DHT22;5677;48.488;13.436;2022-09-09T16:09:27;19.80;57.70
11239;DHT22;5677;48.488;13.436;2022-09-09T16:11:56;19.80;57.70
11239;DHT22;5677;48.488;13.436;2022-09-09T16:14:27;19.80;57.70